createdAt,value
2017-01-23T00:01:02.806Z,96.87
2017-01-23T00:02:25.298Z,96.3
2017-01-23T00:03:47.459Z,96.02
2017-01-23T00:05:10.354Z,96.11
2017-01-23T00:06:33.254Z,95.92
2017-01-23T00:07:55.744Z,96.02
2017-01-23T00:09:18.398Z,96.02
2017-01-23T00:10:40.855Z,95.73
2017-01-23T00:12:03.406Z,96.11
2017-01-23T00:13:25.504Z,95.92
2017-01-23T00:14:47.760Z,95.83
2017-01-23T00:16:09.877Z,96.11
2017-01-23T00:17:32.569Z,96.11
2017-01-23T00:18:54.694Z,96.3
2017-01-23T00:20:17.575Z,95.73
2017-01-23T00:21:40.077Z,95.83
2017-01-23T00:23:01.762Z,95.83
2017-01-23T00:24:23.453Z,95.64
2017-01-23T00:25:46.345Z,96.11
2017-01-23T00:27:08.838Z,96.02
2017-01-23T00:28:31.724Z,96.68
2017-01-23T00:29:54.205Z,97.15
2017-01-23T00:31:15.913Z,97.25
2017-01-23T00:32:38.400Z,97.53
2017-01-23T00:34:00.502Z,97.44
2017-01-23T00:35:22.592Z,97.53
2017-01-23T00:36:45.134Z,97.15
2017-01-23T00:38:08.179Z,97.34
2017-01-23T00:39:30.282Z,96.68
2017-01-23T00:40:52.819Z,96.49
2017-01-23T00:42:15.074Z,97.25
2017-01-23T00:43:38.032Z,97.15
2017-01-23T00:45:00.730Z,97.25
2017-01-23T00:46:23.272Z,97.25
2017-01-23T00:47:46.151Z,97.25
2017-01-23T00:49:08.631Z,96.78
2017-01-23T00:50:31.109Z,96.59
2017-01-23T00:51:53.210Z,96.68
2017-01-23T00:53:15.294Z,96.4
2017-01-23T00:54:37.847Z,96.3
2017-01-23T00:55:59.937Z,95.54
2017-01-23T00:57:22.834Z,95.92
2017-01-23T00:58:45.315Z,95.73
2017-01-23T01:00:07.848Z,95.64
2017-01-23T01:01:29.567Z,95.54
2017-01-23T01:02:50.850Z,95.83
2017-01-23T01:04:12.993Z,95.64
2017-01-23T01:05:35.079Z,96.02
2017-01-23T01:06:56.766Z,95.83
2017-01-23T01:08:19.659Z,96.59
2017-01-23T01:09:42.576Z,96.68
2017-01-23T01:11:05.098Z,96.68
2017-01-23T01:12:27.597Z,96.59
2017-01-23T01:13:50.250Z,96.3
2017-01-23T01:15:12.334Z,96.3
2017-01-23T01:16:34.440Z,96.87
2017-01-23T01:17:56.306Z,96.59
2017-01-23T01:19:18.831Z,96.4
2017-01-23T01:20:40.910Z,96.49
2017-01-23T01:22:02.608Z,96.49
2017-01-23T01:23:25.113Z,96.02
2017-01-23T01:24:48.001Z,96.11
2017-01-23T01:26:09.703Z,96.21
2017-01-23T01:27:32.201Z,95.73
2017-01-23T01:28:55.078Z,95.83
2017-01-23T01:30:17.987Z,96.02
2017-01-23T01:31:40.868Z,95.92
2017-01-23T01:33:03.515Z,96.21
2017-01-23T01:34:25.590Z,95.45
2017-01-23T01:35:48.155Z,95.54
2017-01-23T01:37:10.237Z,95.73
2017-01-23T01:38:32.351Z,95.45
2017-01-23T01:39:54.826Z,95.92
2017-01-23T01:41:17.322Z,96.11
2017-01-23T01:42:39.115Z,96.11
2017-01-23T01:44:01.229Z,96.11
2017-01-23T01:45:23.306Z,95.92
2017-01-23T01:46:45.917Z,96.02
2017-01-23T01:48:07.667Z,96.3
2017-01-23T01:49:30.209Z,96.59
2017-01-23T01:50:51.953Z,97.34
2017-01-23T01:52:14.471Z,97.15
2017-01-23T01:53:36.953Z,98.33
2017-01-23T01:54:59.549Z,98.33
2017-01-23T01:56:21.650Z,98.8
2017-01-23T01:57:44.568Z,98.9
2017-01-23T01:59:07.104Z,99.56
2017-01-23T02:00:29.986Z,99.99
2017-01-23T02:01:52.458Z,99.75
2017-01-23T02:03:14.918Z,99.56
2017-01-23T02:04:37.892Z,99.33
2017-01-23T02:06:00.788Z,98.85
2017-01-23T02:07:23.370Z,98.19
2017-01-23T02:08:46.006Z,97.53
2017-01-23T02:10:08.147Z,97.25
2017-01-23T02:11:31.151Z,97.44
2017-01-23T02:12:53.267Z,97.25
2017-01-23T02:14:16.172Z,97.15
2017-01-23T02:15:37.967Z,97.25
2017-01-23T02:17:00.115Z,96.96
2017-01-23T02:18:22.221Z,97.53
2017-01-23T02:19:45.220Z,97.63
2017-01-23T02:21:08.255Z,97.29
2017-01-23T02:22:30.331Z,97.06
2017-01-23T02:23:52.821Z,97.63
2017-01-23T02:25:15.305Z,97.44
2017-01-23T02:26:37.374Z,97.44
2017-01-23T02:27:59.878Z,97.34
2017-01-23T02:29:22.820Z,96.96
2017-01-23T02:30:44.271Z,96.4
2017-01-23T02:32:06.483Z,96.59
2017-01-23T02:33:28.975Z,96.3
2017-01-23T02:34:51.477Z,96.11
2017-01-23T02:36:14.002Z,96.11
2017-01-23T02:37:36.916Z,95.54
2017-01-23T02:38:59.788Z,96.11
2017-01-23T02:40:22.725Z,96.02
2017-01-23T02:41:45.648Z,96.4
2017-01-23T02:43:08.137Z,96.68
2017-01-23T02:44:29.874Z,97.15
2017-01-23T02:45:52.435Z,96.87
2017-01-23T02:47:14.924Z,96.59
2017-01-23T02:48:37.899Z,96.78
2017-01-23T02:50:00.379Z,96.11
2017-01-23T02:51:22.466Z,96.11
2017-01-23T02:52:44.654Z,95.92
2017-01-23T02:54:07.176Z,96.11
2017-01-23T02:55:29.267Z,95.45
2017-01-23T02:56:51.740Z,96.11
2017-01-23T02:58:14.323Z,96.3
2017-01-23T02:59:36.802Z,96.11
2017-01-23T03:00:58.892Z,96.11
2017-01-23T03:02:20.975Z,96.21
2017-01-23T03:03:42.655Z,96.11
2017-01-23T03:05:05.157Z,95.73
2017-01-23T03:06:27.678Z,95.92
2017-01-23T03:07:49.359Z,95.64
2017-01-23T03:09:11.032Z,96.02
2017-01-23T03:10:33.104Z,95.83
2017-01-23T03:11:54.890Z,96.11
2017-01-23T03:13:17.392Z,96.11
2017-01-23T03:14:39.941Z,95.64
2017-01-23T03:16:02.986Z,96.11
2017-01-23T03:17:25.873Z,95.73
2017-01-23T03:18:48.391Z,96.49
2017-01-23T03:20:11.260Z,96.96
2017-01-23T03:21:33.777Z,97.34
2017-01-23T03:22:56.690Z,96.96
2017-01-23T03:24:18.773Z,96.96
2017-01-23T03:25:41.689Z,96.49
2017-01-23T03:27:03.370Z,96.4
2017-01-23T03:28:25.451Z,96.49
2017-01-23T03:29:47.676Z,96.59
2017-01-23T03:31:10.323Z,97.15
2017-01-23T03:32:32.798Z,97.34
2017-01-23T03:33:55.290Z,97.34
2017-01-23T03:35:17.794Z,97.53
2017-01-23T03:36:40.369Z,97.44
2017-01-23T03:38:03.263Z,97.34
2017-01-23T03:39:26.227Z,97.44
2017-01-23T03:40:48.730Z,96.96
2017-01-23T03:42:10.445Z,97.25
2017-01-23T03:43:33.317Z,97.25
2017-01-23T03:44:55.809Z,97.06
2017-01-23T03:46:18.771Z,97.34
2017-01-23T03:47:41.273Z,96.59
2017-01-23T03:49:03.896Z,97.06
2017-01-23T03:50:25.585Z,97.34
2017-01-23T03:51:47.666Z,97.44
2017-01-23T03:53:10.346Z,97.44
2017-01-23T03:54:32.067Z,97.72
2017-01-23T03:55:54.651Z,98.14
2017-01-23T03:57:16.801Z,97.96
2017-01-23T03:58:39.701Z,98.33
2017-01-23T04:00:01.791Z,98.57
2017-01-23T04:01:23.856Z,98.28
2017-01-23T04:02:46.334Z,98.19
2017-01-23T04:04:08.870Z,98.28
2017-01-23T04:05:31.368Z,97.72
2017-01-23T04:06:53.522Z,97.91
2017-01-23T04:08:15.613Z,97.53
2017-01-23T04:09:38.530Z,97.72
2017-01-23T04:11:01.838Z,97.34
2017-01-23T04:12:24.869Z,97.44
2017-01-23T04:13:46.950Z,97.53
2017-01-23T04:15:08.650Z,98.28
2017-01-23T04:16:30.751Z,98.05
2017-01-23T04:17:53.650Z,97.53
2017-01-23T04:19:15.723Z,97.48
2017-01-23T04:20:37.814Z,97.53
2017-01-23T04:21:59.543Z,97.67
2017-01-23T04:23:22.515Z,97.67
2017-01-23T04:24:45.037Z,98.38
2017-01-23T04:26:07.164Z,98.14
2017-01-23T04:27:29.644Z,98.61
2017-01-23T04:28:52.159Z,98.33
2017-01-23T04:30:14.281Z,98.61
2017-01-23T04:31:36.775Z,98.28
2017-01-23T04:32:59.316Z,97.53
2017-01-23T04:34:21.805Z,97.67
2017-01-23T04:35:44.279Z,97.72
2017-01-23T04:37:07.021Z,97.72
2017-01-23T04:38:29.168Z,97.63
2017-01-23T04:39:50.453Z,97.53
2017-01-23T04:41:12.695Z,97.06
2017-01-23T04:42:35.665Z,97.34
2017-01-23T04:43:58.160Z,97.06
2017-01-23T04:45:21.121Z,96.78
2017-01-23T04:46:43.619Z,96.78
2017-01-23T04:48:06.093Z,96.68
2017-01-23T04:49:28.272Z,96.78
2017-01-23T04:50:50.434Z,96.49
2017-01-23T04:52:13.321Z,96.11
2017-01-23T04:53:35.865Z,96.21
2017-01-23T04:54:58.465Z,95.73
2017-01-23T04:56:21.352Z,94.89
2017-01-23T04:57:43.833Z,95.73
2017-01-23T04:59:05.921Z,95.83
2017-01-23T05:00:28.019Z,95.17
2017-01-23T05:01:50.142Z,95.64
2017-01-23T05:03:11.849Z,95.45
2017-01-23T05:04:34.021Z,96.21
2017-01-23T05:05:56.127Z,96.3
2017-01-23T05:07:18.613Z,96.11
2017-01-23T05:08:40.699Z,96.3
2017-01-23T05:10:02.849Z,96.87
2017-01-23T05:11:25.343Z,96.59
2017-01-23T05:12:47.433Z,96.68
2017-01-23T05:14:09.497Z,96.49
2017-01-23T05:15:31.607Z,96.59
2017-01-23T05:16:54.243Z,96.59
2017-01-23T05:18:16.847Z,96.59
2017-01-23T05:19:38.936Z,96.68
2017-01-23T05:21:01.472Z,96.11
2017-01-23T05:22:24.514Z,96.02
2017-01-23T05:23:47.026Z,96.21
2017-01-23T05:25:09.524Z,96.02
2017-01-23T05:26:32.031Z,95.64
2017-01-23T05:27:54.553Z,95.07
2017-01-23T05:29:17.104Z,95.17
2017-01-23T05:30:40.065Z,95.07
2017-01-23T05:32:02.991Z,95.64
2017-01-23T05:33:25.144Z,95.83
2017-01-23T05:34:47.667Z,95.92
2017-01-23T05:36:09.365Z,95.69
2017-01-23T05:37:31.986Z,95.4
2017-01-23T05:38:54.074Z,95.21
2017-01-23T05:40:16.662Z,94.37
2017-01-23T05:41:39.561Z,94.56
2017-01-23T05:43:01.496Z,94.46
2017-01-23T05:44:23.978Z,93.89
2017-01-23T05:45:46.981Z,93.32
2017-01-23T05:47:09.479Z,93.23
2017-01-23T05:48:31.576Z,93.61
2017-01-23T05:49:53.776Z,93.61
2017-01-23T05:51:15.878Z,93.61
2017-01-23T05:52:38.359Z,93.04
2017-01-23T05:54:00.044Z,92.38
2017-01-23T05:55:22.954Z,92.47
2017-01-23T05:56:44.662Z,92.47
2017-01-23T05:58:07.805Z,92
2017-01-23T05:59:29.924Z,92.1
2017-01-23T06:00:52.850Z,91.81
2017-01-23T06:02:15.394Z,92.19
2017-01-23T06:03:38.298Z,92.47
2017-01-23T06:05:01.440Z,92.47
2017-01-23T06:06:24.463Z,93.42
2017-01-23T06:07:46.931Z,93.42
2017-01-23T06:09:09.116Z,93.42
2017-01-23T06:10:31.187Z,93.42
2017-01-23T06:11:54.140Z,93.51
2017-01-23T06:13:16.631Z,94.37
2017-01-23T06:14:38.748Z,93.99
2017-01-23T06:16:01.261Z,94.46
2017-01-23T06:17:23.063Z,94.46
2017-01-23T06:18:45.554Z,94.27
2017-01-23T06:20:07.330Z,94.79
2017-01-23T06:21:29.843Z,94.98
2017-01-23T06:22:51.942Z,95.03
2017-01-23T06:24:13.232Z,94.46
2017-01-23T06:25:36.131Z,93.99
2017-01-23T06:26:57.872Z,93.99
2017-01-23T06:28:19.964Z,94.08
2017-01-23T06:29:42.860Z,94.08
2017-01-23T06:31:05.365Z,94.27
2017-01-23T06:32:27.891Z,93.61
2017-01-23T06:33:49.578Z,93.89
2017-01-23T06:35:11.231Z,93.51
2017-01-23T06:36:33.743Z,93.51
2017-01-23T06:37:55.826Z,93.42
2017-01-23T06:39:18.371Z,93.42
2017-01-23T06:40:40.872Z,93.51
2017-01-23T06:42:02.575Z,93.42
2017-01-23T06:43:25.132Z,93.23
2017-01-23T06:44:48.152Z,93.42
2017-01-23T06:46:11.044Z,93.42
2017-01-23T06:47:33.618Z,93.23
2017-01-23T06:48:55.729Z,92.66
2017-01-23T06:50:18.311Z,93.13
2017-01-23T06:51:40.402Z,93.04
2017-01-23T06:53:02.951Z,92.94
2017-01-23T06:54:25.428Z,93.51
2017-01-23T06:55:48.368Z,93.23
2017-01-23T06:57:11.064Z,93.51
2017-01-23T06:58:34.050Z,93.61
2017-01-23T06:59:56.649Z,93.51
2017-01-23T07:01:19.590Z,93.23
2017-01-23T07:02:41.257Z,93.42
2017-01-23T07:04:03.864Z,92.94
2017-01-23T07:05:25.555Z,93.7
2017-01-23T07:06:48.570Z,93.23
2017-01-23T07:08:11.039Z,92.85
2017-01-23T07:09:33.151Z,93.23
2017-01-23T07:10:55.744Z,92.85
2017-01-23T07:12:18.340Z,92.47
2017-01-23T07:13:40.817Z,92.29
2017-01-23T07:15:03.440Z,92.57
2017-01-23T07:16:25.933Z,92.76
2017-01-23T07:17:48.023Z,92.66
2017-01-23T07:19:10.512Z,92.85
2017-01-23T07:20:33.113Z,92.29
2017-01-23T07:21:55.614Z,92.14
2017-01-23T07:23:17.785Z,92.24
2017-01-23T07:24:40.000Z,92.29
2017-01-23T07:26:02.015Z,92.66
2017-01-23T07:27:24.788Z,92.76
2017-01-23T07:28:47.281Z,92.47
2017-01-23T07:30:09.003Z,92.38
2017-01-23T07:31:31.588Z,93.04
2017-01-23T07:32:54.121Z,92.47
2017-01-23T07:34:17.002Z,92.38
2017-01-23T07:35:39.857Z,92.19
2017-01-23T07:37:02.352Z,92.38
2017-01-23T07:38:25.340Z,92.47
2017-01-23T07:39:47.837Z,92.57
2017-01-23T07:41:10.057Z,92.38
2017-01-23T07:42:32.541Z,92.38
2017-01-23T07:43:55.066Z,92.38
2017-01-23T07:45:18.083Z,92.61
2017-01-23T07:46:40.968Z,92.52
2017-01-23T07:48:03.057Z,92.24
2017-01-23T07:49:25.960Z,92.05
2017-01-23T07:50:48.921Z,92.24
2017-01-23T07:52:12.111Z,91.96
2017-01-23T07:53:34.576Z,91.48
2017-01-23T07:54:57.072Z,91.39
2017-01-23T07:56:19.987Z,91.2
2017-01-23T07:57:42.943Z,90.72
2017-01-23T07:59:05.838Z,91.2
2017-01-23T08:00:28.794Z,91.1
2017-01-23T08:01:51.742Z,90.91
2017-01-23T08:03:14.616Z,90.91
2017-01-23T08:04:37.100Z,91.1
2017-01-23T08:06:00.001Z,90.72
2017-01-23T08:07:22.617Z,90.91
2017-01-23T08:08:44.698Z,90.91
2017-01-23T08:10:07.593Z,91.01
2017-01-23T08:11:30.226Z,90.53
2017-01-23T08:12:53.119Z,90.44
2017-01-23T08:14:15.208Z,89.97
2017-01-23T08:15:38.160Z,91.01
2017-01-23T08:16:59.440Z,90.53
2017-01-23T08:18:22.445Z,90.72
2017-01-23T08:19:44.957Z,90.53
2017-01-23T08:21:07.083Z,90.53
2017-01-23T08:22:29.309Z,91.1
2017-01-23T08:23:52.192Z,90.91
2017-01-23T08:25:15.161Z,91.58
2017-01-23T08:26:38.129Z,91.48
2017-01-23T08:28:00.253Z,91.39
2017-01-23T08:29:22.741Z,91.86
2017-01-23T08:30:44.915Z,91.58
2017-01-23T08:32:07.393Z,91.67
2017-01-23T08:33:29.481Z,91.29
2017-01-23T08:34:52.400Z,91.2
2017-01-23T08:36:15.378Z,91.2
2017-01-23T08:37:38.474Z,90.91
2017-01-23T08:39:01.419Z,90.82
2017-01-23T08:40:23.899Z,90.72
2017-01-23T08:41:46.401Z,90.53
2017-01-23T08:43:09.297Z,91.01
2017-01-23T08:44:32.257Z,90.72
2017-01-23T08:45:55.191Z,90.91
2017-01-23T08:47:17.288Z,90.72
2017-01-23T08:48:40.365Z,90.25
2017-01-23T08:50:02.063Z,89.87
2017-01-23T08:51:24.576Z,89.87
2017-01-23T08:52:47.450Z,89.59
2017-01-23T08:54:09.571Z,89.87
2017-01-23T08:55:32.105Z,89.97
2017-01-23T08:56:54.830Z,89.59
2017-01-23T08:58:17.322Z,89.69
2017-01-23T08:59:40.361Z,88.97
2017-01-23T09:01:03.321Z,88.49
2017-01-23T09:02:25.814Z,88.87
2017-01-23T09:03:47.957Z,88.68
2017-01-23T09:05:10.880Z,88.68
2017-01-23T09:06:32.181Z,88.68
2017-01-23T09:07:55.053Z,88.02
2017-01-23T09:09:17.541Z,88.12
2017-01-23T09:10:39.725Z,87.17
2017-01-23T09:12:02.263Z,86.98
2017-01-23T09:13:25.161Z,86.89
2017-01-23T09:14:48.242Z,87.08
2017-01-23T09:16:11.137Z,86.41
2017-01-23T09:17:33.608Z,85.94
2017-01-23T09:18:56.481Z,85.38
2017-01-23T09:20:18.636Z,85.19
2017-01-23T09:21:41.106Z,84.81
2017-01-23T09:23:04.041Z,84.71
2017-01-23T09:24:26.949Z,84.52
2017-01-23T09:25:49.462Z,84.23
2017-01-23T09:27:12.010Z,84.61
2017-01-23T09:28:34.497Z,83.81
2017-01-23T09:29:56.177Z,83.62
2017-01-23T09:31:18.356Z,83.71
2017-01-23T09:32:41.286Z,83.62
2017-01-23T09:34:03.774Z,83.24
2017-01-23T09:35:26.704Z,83.33
2017-01-23T09:36:49.231Z,83.24
2017-01-23T09:38:11.786Z,82.29
2017-01-23T09:39:34.681Z,82.29
2017-01-23T09:40:57.568Z,82.2
2017-01-23T09:42:20.046Z,81.92
2017-01-23T09:43:42.696Z,81.44
2017-01-23T09:45:03.985Z,80.77
2017-01-23T09:46:25.656Z,80.63
2017-01-23T09:47:48.588Z,80.15
2017-01-23T09:49:11.090Z,79.68
2017-01-23T09:50:33.633Z,79.96
2017-01-23T09:51:56.213Z,79.3
2017-01-23T09:53:17.930Z,79.3
2017-01-23T09:54:40.118Z,79.39
2017-01-23T09:56:02.357Z,79.58
2017-01-23T09:57:25.202Z,79.49
2017-01-23T09:58:48.102Z,79.39
2017-01-23T10:00:10.584Z,79.11
2017-01-23T10:01:33.458Z,79.87
2017-01-23T10:02:56.502Z,80.06
2017-01-23T10:04:18.609Z,79.58
2017-01-23T10:05:41.528Z,80.15
2017-01-23T10:07:04.531Z,80.58
2017-01-23T10:08:27.082Z,80.25
2017-01-23T10:09:49.975Z,80.68
2017-01-23T10:11:12.883Z,80.96
2017-01-23T10:12:35.362Z,80.96
2017-01-23T10:13:57.511Z,80.77
2017-01-23T10:15:19.997Z,80.68
2017-01-23T10:16:42.487Z,81.63
2017-01-23T10:18:05.386Z,81.63
2017-01-23T10:19:28.315Z,81.53
2017-01-23T10:20:51.197Z,81.25
2017-01-23T10:22:13.319Z,82.01
2017-01-23T10:23:36.203Z,82.48
2017-01-23T10:24:59.183Z,82.29
2017-01-23T10:26:21.255Z,81.53
2017-01-23T10:27:44.289Z,81.44
2017-01-23T10:29:07.188Z,81.25
2017-01-23T10:30:29.684Z,81.15
2017-01-23T10:31:52.164Z,81.44
2017-01-23T10:33:15.099Z,81.82
2017-01-23T10:34:37.162Z,81.72
2017-01-23T10:35:59.631Z,81.72
2017-01-23T10:37:22.103Z,81.53
2017-01-23T10:38:44.579Z,81.63
2017-01-23T10:40:07.081Z,81.25
2017-01-23T10:41:29.584Z,81.44
2017-01-23T10:42:51.682Z,81.53
2017-01-23T10:44:13.384Z,81.25
2017-01-23T10:45:36.290Z,81.25
2017-01-23T10:46:58.389Z,81.53
2017-01-23T10:48:21.343Z,81.34
2017-01-23T10:49:43.565Z,81.15
2017-01-23T10:51:06.072Z,81.72
2017-01-23T10:52:29.109Z,81.82
2017-01-23T10:53:52.608Z,81.82
2017-01-23T10:55:14.704Z,81.82
2017-01-23T10:56:37.239Z,81.48
2017-01-23T10:57:59.739Z,80.82
2017-01-23T10:59:22.723Z,81.2
2017-01-23T11:00:45.595Z,81.2
2017-01-23T11:02:08.110Z,80.96
2017-01-23T11:03:30.988Z,80.87
2017-01-23T11:04:53.932Z,81.01
2017-01-23T11:06:16.435Z,80.72
2017-01-23T11:07:39.046Z,80.68
2017-01-23T11:09:00.730Z,80.87
2017-01-23T11:10:22.821Z,81.15
2017-01-23T11:11:46.082Z,81.44
2017-01-23T11:13:08.206Z,81.06
2017-01-23T11:14:31.128Z,81.72
2017-01-23T11:15:53.643Z,82.2
2017-01-23T11:17:15.386Z,81.92
2017-01-23T11:18:38.508Z,82.01
2017-01-23T11:20:00.207Z,81.63
2017-01-23T11:21:22.713Z,81.92
2017-01-23T11:22:45.254Z,81.72
2017-01-23T11:24:07.750Z,82.39
2017-01-23T11:25:30.246Z,82.57
2017-01-23T11:26:53.271Z,81.72
2017-01-23T11:28:15.757Z,81.82
2017-01-23T11:29:38.353Z,81.53
2017-01-23T11:31:00.915Z,81.53
2017-01-23T11:32:23.455Z,81.44
2017-01-23T11:33:46.512Z,80.96
2017-01-23T11:35:09.092Z,81.15
2017-01-23T11:36:31.980Z,81.06
2017-01-23T11:37:54.240Z,80.77
2017-01-23T11:39:16.741Z,81.34
2017-01-23T11:40:39.337Z,81.63
2017-01-23T11:42:02.234Z,81.25
2017-01-23T11:43:25.204Z,81.25
2017-01-23T11:44:47.691Z,81.29
2017-01-23T11:46:10.580Z,80.72
2017-01-23T11:47:33.062Z,80.82
2017-01-23T11:48:55.630Z,80.06
2017-01-23T11:50:18.164Z,80.15
2017-01-23T11:51:40.263Z,79.68
2017-01-23T11:53:03.162Z,78.83
2017-01-23T11:54:26.203Z,78.54
2017-01-23T11:55:49.086Z,78.73
2017-01-23T11:57:11.991Z,78.45
2017-01-23T11:58:34.495Z,78.45
2017-01-23T11:59:56.585Z,78.26
2017-01-23T12:01:19.479Z,78.02
2017-01-23T12:02:42.545Z,77.73
2017-01-23T12:04:05.052Z,77.64
2017-01-23T12:05:27.952Z,78.2
2017-01-23T12:06:50.499Z,77.92
2017-01-23T12:08:12.981Z,78.64
2017-01-23T12:09:35.471Z,78.83
2017-01-23T12:10:58.440Z,78.92
2017-01-23T12:12:21.013Z,78.54
2017-01-23T12:13:43.500Z,79.39
2017-01-23T12:15:06.402Z,79.87
2017-01-23T12:16:29.351Z,79.58
2017-01-23T12:17:52.264Z,80.72
2017-01-23T12:19:14.767Z,82.2
2017-01-23T12:20:37.695Z,82.39
2017-01-23T12:22:00.577Z,81.92
2017-01-23T12:23:21.858Z,82.1
2017-01-23T12:24:44.356Z,82.57
2017-01-23T12:26:07.249Z,82.39
2017-01-23T12:27:30.143Z,82.01
2017-01-23T12:28:53.041Z,82.57
2017-01-23T12:30:15.519Z,83.05
2017-01-23T12:31:38.571Z,82.57
2017-01-23T12:33:01.059Z,83.14
2017-01-23T12:34:23.366Z,83.05
2017-01-23T12:35:45.831Z,83.62
2017-01-23T12:37:08.817Z,83.81
2017-01-23T12:38:30.502Z,84.38
2017-01-23T12:39:53.014Z,84.75
2017-01-23T12:41:15.124Z,84.56
2017-01-23T12:42:37.612Z,84.75
2017-01-23T12:44:00.672Z,84.75
2017-01-23T12:45:23.173Z,84.75
2017-01-23T12:46:46.088Z,84.09
2017-01-23T12:48:08.604Z,83.9
2017-01-23T12:49:31.268Z,83.9
2017-01-23T12:50:53.465Z,84.38
2017-01-23T12:52:15.550Z,84.38
2017-01-23T12:53:38.084Z,84.66
2017-01-23T12:55:01.003Z,84.56
2017-01-23T12:56:23.892Z,84.47
2017-01-23T12:57:45.971Z,84.28
2017-01-23T12:59:08.070Z,84.28
2017-01-23T13:00:30.999Z,84.94
2017-01-23T13:01:53.904Z,84.85
2017-01-23T13:03:16.115Z,84.94
2017-01-23T13:04:39.169Z,85.04
2017-01-23T13:06:01.257Z,85.32
2017-01-23T13:07:24.165Z,84.38
2017-01-23T13:08:46.323Z,83.81
2017-01-23T13:10:09.316Z,83.28
2017-01-23T13:11:31.923Z,82.52
2017-01-23T13:12:54.842Z,82.43
2017-01-23T13:14:17.841Z,82.33
2017-01-23T13:15:40.747Z,81.86
2017-01-23T13:17:03.222Z,81.86
2017-01-23T13:18:25.717Z,81.95
2017-01-23T13:19:48.374Z,81.2
2017-01-23T13:21:11.420Z,81.67
2017-01-23T13:22:33.952Z,82.05
2017-01-23T13:23:56.582Z,81.86
2017-01-23T13:25:19.116Z,82.14
2017-01-23T13:26:41.329Z,82.52
2017-01-23T13:28:04.213Z,82.48
2017-01-23T13:29:27.094Z,82.76
2017-01-23T13:30:49.596Z,82.95
2017-01-23T13:32:12.559Z,83.33
2017-01-23T13:33:35.483Z,84
2017-01-23T13:34:56.784Z,83.81
2017-01-23T13:36:19.732Z,83.52
2017-01-23T13:37:42.761Z,84.09
2017-01-23T13:39:05.663Z,84.38
2017-01-23T13:40:28.211Z,84.66
2017-01-23T13:41:50.837Z,84.66
2017-01-23T13:43:12.941Z,84.28
2017-01-23T13:44:35.861Z,84.28
2017-01-23T13:45:58.608Z,84.28
2017-01-23T13:47:21.094Z,84.28
2017-01-23T13:48:43.619Z,84.66
2017-01-23T13:50:05.707Z,84.09
2017-01-23T13:51:27.838Z,84.09
2017-01-23T13:52:50.390Z,84.56
2017-01-23T13:54:12.577Z,84.75
2017-01-23T13:55:35.462Z,84.94
2017-01-23T13:56:58.025Z,85.04
2017-01-23T13:58:19.807Z,85.13
2017-01-23T13:59:42.273Z,84.75
2017-01-23T14:01:05.166Z,85.04
2017-01-23T14:02:27.674Z,84.66
2017-01-23T14:03:50.568Z,84.94
2017-01-23T14:05:13.066Z,85.04
2017-01-23T14:06:35.949Z,84.94
2017-01-23T14:07:59.027Z,85.32
2017-01-23T14:09:21.936Z,84.47
2017-01-23T14:10:44.849Z,84.75
2017-01-23T14:12:07.358Z,84.56
2017-01-23T14:13:30.326Z,84.47
2017-01-23T14:14:52.653Z,84.38
2017-01-23T14:16:15.551Z,84.47
2017-01-23T14:17:38.195Z,84.94
2017-01-23T14:19:01.859Z,84.94
2017-01-23T14:20:24.818Z,84.66
2017-01-23T14:21:47.706Z,84
2017-01-23T14:23:10.296Z,84.47
2017-01-23T14:24:33.274Z,84.38
2017-01-23T14:25:55.762Z,84.28
2017-01-23T14:27:18.288Z,84.66
2017-01-23T14:28:41.195Z,84.56
2017-01-23T14:30:04.182Z,84.28
2017-01-23T14:31:26.263Z,84.28
2017-01-23T14:32:48.833Z,84.94
2017-01-23T14:34:11.847Z,84.75
2017-01-23T14:35:34.344Z,84.75
2017-01-23T14:36:56.874Z,84.75
2017-01-23T14:38:19.762Z,84.75
2017-01-23T14:39:42.684Z,84.66
2017-01-23T14:41:05.613Z,84.85
2017-01-23T14:42:28.515Z,85.13
2017-01-23T14:43:51.568Z,85.51
2017-01-23T14:45:13.682Z,85.7
2017-01-23T14:46:36.580Z,85.13
2017-01-23T14:47:59.615Z,85.23
2017-01-23T14:49:22.495Z,85.61
2017-01-23T14:50:45.388Z,85.42
2017-01-23T14:52:08.286Z,85.32
2017-01-23T14:53:30.924Z,85.38
2017-01-23T14:54:53.846Z,85.38
2017-01-23T14:56:16.802Z,85.66
2017-01-23T14:57:39.760Z,86.41
2017-01-23T14:59:02.257Z,86.04
2017-01-23T15:00:24.862Z,86.7
2017-01-23T15:01:47.732Z,87.17
2017-01-23T15:03:10.628Z,86.89
2017-01-23T15:04:33.557Z,87.36
2017-01-23T15:05:55.687Z,87.36
2017-01-23T15:07:18.719Z,86.89
2017-01-23T15:08:41.417Z,86.89
2017-01-23T15:10:03.949Z,86.6
2017-01-23T15:11:26.663Z,86.7
2017-01-23T15:12:49.190Z,86.22
2017-01-23T15:14:12.108Z,86.32
2017-01-23T15:15:34.984Z,86.22
2017-01-23T15:16:57.840Z,86.51
2017-01-23T15:18:20.742Z,86.89
2017-01-23T15:19:43.788Z,86.98
2017-01-23T15:21:06.473Z,87.36
2017-01-23T15:22:29.516Z,87.36
2017-01-23T15:23:51.198Z,87.46
2017-01-23T15:25:14.158Z,87.84
2017-01-23T15:26:36.752Z,87.84
2017-01-23T15:27:59.286Z,88.31
2017-01-23T15:29:21.369Z,88.78
2017-01-23T15:30:44.308Z,88.78
2017-01-23T15:32:07.256Z,88.87
2017-01-23T15:33:30.207Z,88.68
2017-01-23T15:34:53.151Z,89.44
2017-01-23T15:36:15.247Z,89.16
2017-01-23T15:37:37.768Z,89.5
2017-01-23T15:39:00.432Z,89.59
2017-01-23T15:40:22.947Z,90.53
2017-01-23T15:41:45.493Z,90.53
2017-01-23T15:43:08.526Z,91.01
2017-01-23T15:44:30.612Z,91.67
2017-01-23T15:45:51.971Z,91.77
2017-01-23T15:47:14.470Z,92.43
2017-01-23T15:48:37.396Z,92.66
2017-01-23T15:50:00.392Z,93.04
2017-01-23T15:51:23.357Z,93.61
2017-01-23T15:52:46.262Z,94.08
2017-01-23T15:54:09.191Z,94.37
2017-01-23T15:55:32.190Z,94.74
2017-01-23T15:56:54.304Z,95.4
2017-01-23T15:58:17.209Z,95.31
2017-01-23T15:59:40.138Z,95.97
2017-01-23T16:01:03.112Z,96.26
2017-01-23T16:02:26.010Z,96.35
2017-01-23T16:03:48.927Z,96.16
2017-01-23T16:05:11.867Z,96.73
2017-01-23T16:06:34.935Z,96.45
2017-01-23T16:07:57.818Z,96.64
2017-01-23T16:09:20.851Z,97.39
2017-01-23T16:10:43.363Z,97.2
2017-01-23T16:12:06.267Z,97.44
2017-01-23T16:13:29.220Z,97.58
2017-01-23T16:14:52.112Z,97.58
2017-01-23T16:16:15.003Z,97.49
2017-01-23T16:17:37.890Z,97.77
2017-01-23T16:19:00.813Z,97.77
2017-01-23T16:20:23.746Z,97.96
2017-01-23T16:21:47.096Z,98.05
2017-01-23T16:23:41.701Z,98.38
2017-01-23T16:25:04.757Z,98.43
2017-01-23T16:26:27.658Z,98.14
2017-01-23T16:27:50.557Z,98.52
2017-01-23T16:29:13.461Z,98.62
2017-01-23T16:30:36.387Z,98.43
2017-01-23T16:31:59.256Z,98.52
2017-01-23T16:33:21.315Z,98.9
2017-01-23T16:34:44.238Z,99
2017-01-23T16:36:07.393Z,99.28
2017-01-23T16:37:30.402Z,98.43
2017-01-23T16:38:53.266Z,98.14
2017-01-23T16:40:16.298Z,98.05
2017-01-23T16:41:39.197Z,97.44
2017-01-23T16:43:01.707Z,97.06
2017-01-23T16:44:24.591Z,96.31
2017-01-23T16:45:47.567Z,95.93
2017-01-23T16:47:10.442Z,95.45
2017-01-23T16:48:33.560Z,94.04
2017-01-23T16:49:56.600Z,94.32
2017-01-23T16:51:19.476Z,94.42
2017-01-23T16:52:42.047Z,93.37
2017-01-23T16:54:04.955Z,93.85
2017-01-23T16:55:27.877Z,93.94
2017-01-23T16:56:50.779Z,93.66
2017-01-23T16:58:12.879Z,93.37
2017-01-23T16:59:35.769Z,93.09
2017-01-23T17:00:58.674Z,93.09
2017-01-23T17:02:21.572Z,92.71
2017-01-23T17:03:44.583Z,92.8
2017-01-23T17:05:07.477Z,92.43
2017-01-23T17:06:30.068Z,92.9
2017-01-23T17:07:53.065Z,92.52
2017-01-23T17:09:15.967Z,92.61
2017-01-23T17:10:38.873Z,92.05
2017-01-23T17:12:01.373Z,92.33
2017-01-23T17:13:23.935Z,91.96
2017-01-23T17:14:46.471Z,91.77
2017-01-23T17:16:09.495Z,91.62
2017-01-23T17:17:32.109Z,91.39
2017-01-23T17:18:55.141Z,91.39
2017-01-23T17:20:18.013Z,92.1
2017-01-23T17:21:41.019Z,91.43
2017-01-23T17:23:03.133Z,91.48
2017-01-23T17:24:26.153Z,91.48
2017-01-23T17:25:49.056Z,91.48
2017-01-23T17:27:11.804Z,91.58
2017-01-23T17:28:34.703Z,91.58
2017-01-23T17:29:57.577Z,91.2
2017-01-23T17:31:20.491Z,91.39
2017-01-23T17:32:42.976Z,91.58
2017-01-23T17:34:05.841Z,91.48
2017-01-23T17:35:28.367Z,91.1
2017-01-23T17:36:51.241Z,91.24
2017-01-23T17:38:13.751Z,90.96
2017-01-23T17:39:36.232Z,91.2
2017-01-23T17:40:58.718Z,90.67
2017-01-23T17:42:20.780Z,90.67
2017-01-23T17:43:43.730Z,90.86
2017-01-23T17:45:06.730Z,90.86
2017-01-23T17:46:29.604Z,91.15